Time;durP1;ratioP1;P1;durP2;ratioP2;P2;SDS_P1;SDS_P2;PMS_P1;PMS_P2;Temp;Humidity;BMP_temperature;BMP_pressure;BME280_temperature;BME280_humidity;BME280_pressure;Samples;Min_cycle;Max_cycle;Signal;HPM_P1;HPM_P2
2022/06/26 00:02:24;;;;;;;10.50;6.63;;;;;;;;;;5016802;28;20085;-49
2022/06/26 00:04:51;;;;;;;11.80;6.75;;;;;;;;;;5017211;28;20459;-52
2022/06/26 00:07:19;;;;;;;12.02;6.55;;;;;;;;;;5015338;28;20172;-51
2022/06/26 00:09:46;;;;;;;13.73;7.10;;;;;;;;;;5014594;28;20099;-50
2022/06/26 00:12:13;;;;;;;;;;;;;;;;;;5013750;28;20073;-48
2022/06/26 00:14:40;;;;;;;14.88;7.15;;;;;;;;;;5015128;28;19925;-51
2022/06/26 00:17:08;;;;;;;10.68;7.32;;;;;;;;;;5015174;28;20050;-54
2022/06/26 00:19:35;;;;;;;8.27;6.22;;;;;;;;;;5014634;28;20144;-52
2022/06/26 00:22:05;;;;;;;9.10;6.07;;;;;;;;;;5015509;28;20084;-51
2022/06/26 00:24:33;;;;;;;15.02;6.70;;;;;;;;;;5016743;28;20133;-49
2022/06/26 00:27:02;;;;;;;7.80;6.65;;;;;;;;;;5016633;28;20046;-50
2022/06/26 00:29:30;;;;;;;8.32;6.72;;;;;;;;;;5013075;28;20050;-51
2022/06/26 00:31:58;;;;;;;8.93;7.18;;;;;;;;;;5013209;28;20054;-54
2022/06/26 00:34:25;;;;;;;8.05;6.50;;;;;;;;;;5014465;28;20195;-48
2022/06/26 00:36:52;;;;;;;9.55;6.63;;;;;;;;;;5014447;28;20096;-53
2022/06/26 00:39:20;;;;;;;9.43;6.68;;;;;;;;;;5015288;28;20069;-49
2022/06/26 00:41:47;;;;;;;9.15;6.40;;;;;;;;;;5015734;28;20703;-50
2022/06/26 00:44:21;;;;;;;11.07;7.00;;;;;;;;;;5018248;28;20501;-51
2022/06/26 00:46:48;;;;;;;8.10;6.80;;;;;;;;;;5010827;28;20077;-51
2022/06/26 00:49:15;;;;;;;7.35;6.53;;;;;;;;;;5016323;28;20091;-52
2022/06/26 00:51:47;;;;;;;10.85;7.03;;;;;;;;;;5013901;28;20045;-53
2022/06/26 00:54:15;;;;;;;11.63;6.53;;;;;;;;;;5018462;28;20178;-49
2022/06/26 00:56:42;;;;;;;8.10;6.55;;;;;;;;;;5012878;28;20081;-52
2022/06/26 00:59:10;;;;;;;11.77;7.50;;;;;;;;;;5015608;28;20471;-48
2022/06/26 01:01:38;;;;;;;10.43;6.80;;;;;;;;;;5011135;28;20552;-49
2022/06/26 01:04:05;;;;;;;7.53;6.75;;;;;;;;;;5015406;28;20501;-51
2022/06/26 01:06:33;;;;;;;10.35;6.15;;;;;;;;;;5015740;28;20103;-50
2022/06/26 01:09:00;;;;;;;;;;;;;;;;;;5019341;28;20112;-51
2022/06/26 01:11:28;;;;;;;9.68;7.38;;;;;;;;;;5016949;28;20160;-51
2022/06/26 01:13:56;;;;;;;8.55;7.63;;;;;;;;;;5016039;28;20630;-48
2022/06/26 01:16:24;;;;;;;8.38;7.55;;;;;;;;;;5014417;28;20489;-50
2022/06/26 01:18:53;;;;;;;12.82;7.35;;;;;;;;;;5018935;28;20045;-50
2022/06/26 01:21:21;;;;;;;8.63;7.07;;;;;;;;;;5017713;28;20583;-51
2022/06/26 01:23:49;;;;;;;7.90;7.10;;;;;;;;;;5017377;28;20100;-49
2022/06/26 01:26:17;;;;;;;14.32;7.13;;;;;;;;;;5016203;28;20041;-48
2022/06/26 01:28:44;;;;;;;7.10;6.28;;;;;;;;;;5013435;28;20092;-53
2022/06/26 01:31:12;;;;;;;8.10;6.68;;;;;;;;;;5019283;28;20201;-47
2022/06/26 01:33:39;;;;;;;11.98;6.40;;;;;;;;;;5020005;28;20053;-53
2022/06/26 01:36:06;;;;;;;8.15;6.47;;;;;;;;;;5020189;28;20073;-51
2022/06/26 01:38:33;;;;;;;8.18;6.60;;;;;;;;;;5015979;28;20122;-53
2022/06/26 01:41:01;;;;;;;7.28;6.22;;;;;;;;;;5019869;28;20173;-49
2022/06/26 01:43:29;;;;;;;;;;;;;;;;;;5018397;28;20102;-50
2022/06/26 01:45:57;;;;;;;7.85;6.13;;;;;;;;;;5017809;28;20377;-53
2022/06/26 01:48:26;;;;;;;10.68;6.22;;;;;;;;;;5014833;28;20049;-49
2022/06/26 01:50:57;;;;;;;10.70;6.43;;;;;;;;;;5014904;28;22797;-49
2022/06/26 01:53:24;;;;;;;8.73;6.43;;;;;;;;;;5015081;28;20135;-48
2022/06/26 01:55:52;;;;;;;8.23;5.93;;;;;;;;;;5017337;28;20054;-49
2022/06/26 01:58:19;;;;;;;7.78;6.07;;;;;;;;;;5017661;28;20114;-48
2022/06/26 02:00:46;;;;;;;;;;;;;;;;;;5015764;28;20057;-48
2022/06/26 02:03:15;;;;;;;10.68;6.05;;;;;;;;;;5017477;28;19921;-50
2022/06/26 02:05:42;;;;;;;6.03;5.43;;;;;;;;;;5017813;28;20775;-53
2022/06/26 02:08:09;;;;;;;9.73;6.43;;;;;;;;;;5016407;28;20088;-50
2022/06/26 02:13:42;;;;;;;6.75;5.90;;;;;;;;;;5018147;28;20138;-52
2022/06/26 02:16:11;;;;;;;7.57;6.32;;;;;;;;;;5019199;28;20538;-53
2022/06/26 02:18:40;;;;;;;8.75;5.80;;;;;;;;;;5015689;28;20131;-48
2022/06/26 02:21:08;;;;;;;7.82;5.97;;;;;;;;;;5014290;28;20045;-53
2022/06/26 02:23:36;;;;;;;6.07;5.47;;;;;;;;;;5015235;28;20603;-53
2022/06/26 02:26:04;;;;;;;10.43;6.63;;;;;;;;;;5017359;28;20988;-51
2022/06/26 02:28:31;;;;;;;7.90;6.22;;;;;;;;;;5018712;28;20079;-53
2022/06/26 02:30:58;;;;;;;6.75;6.00;;;;;;;;;;5018366;28;20046;-53
2022/06/26 02:33:26;;;;;;;;;;;;;;;;;;5015875;28;20058;-52
2022/06/26 02:35:55;;;;;;;12.02;6.53;;;;;;;;;;5016060;28;19929;-53
2022/06/26 02:38:22;;;;;;;6.97;6.18;;;;;;;;;;5015111;28;20500;-54
2022/06/26 02:40:50;;;;;;;10.25;7.10;;;;;;;;;;5014651;28;20501;-54
2022/06/26 02:43:18;;;;;;;10.68;6.22;;;;;;;;;;5019835;28;20085;-52
2022/06/26 02:45:46;;;;;;;13.15;6.82;;;;;;;;;;5016163;28;20073;-54
2022/06/26 02:48:14;;;;;;;10.30;6.43;;;;;;;;;;5015246;28;20133;-55
2022/06/26 02:50:41;;;;;;;7.47;6.63;;;;;;;;;;5015088;28;20045;-54
2022/06/26 02:53:08;;;;;;;10.40;6.57;;;;;;;;;;5017907;28;20124;-52
2022/06/26 02:55:36;;;;;;;7.57;6.25;;;;;;;;;;5018802;28;20042;-51
2022/06/26 02:58:03;;;;;;;6.78;5.63;;;;;;;;;;5014151;28;20887;-55
2022/06/26 03:00:31;;;;;;;7.57;6.07;;;;;;;;;;5016675;28;20489;-53
2022/06/26 03:03:00;;;;;;;10.40;6.53;;;;;;;;;;5013562;28;20046;-52
2022/06/26 03:05:29;;;;;;;9.10;5.88;;;;;;;;;;5018279;28;20038;-51
2022/06/26 03:07:56;;;;;;;7.00;6.32;;;;;;;;;;5015449;28;20578;-54
2022/06/26 03:10:24;;;;;;;8.88;6.30;;;;;;;;;;5015562;28;20714;-52
2022/06/26 03:12:51;;;;;;;6.40;5.80;;;;;;;;;;5014002;28;20065;-51
2022/06/26 03:15:19;;;;;;;9.38;5.80;;;;;;;;;;5013219;28;20076;-52
2022/06/26 03:17:46;;;;;;;13.70;6.72;;;;;;;;;;5014665;28;20189;-54
2022/06/26 03:20:15;;;;;;;8.13;6.63;;;;;;;;;;5015409;28;20044;-55
2022/06/26 03:22:42;;;;;;;8.35;5.80;;;;;;;;;;5014392;28;20136;-50
2022/06/26 03:25:09;;;;;;;;;;;;;;;;;;5018961;28;20049;-55
2022/06/26 03:27:37;;;;;;;7.13;5.78;;;;;;;;;;5014820;28;19971;-55
2022/06/26 03:30:06;;;;;;;9.85;6.18;;;;;;;;;;5015429;28;20063;-55
2022/06/26 03:32:33;;;;;;;6.70;5.53;;;;;;;;;;5014233;28;20152;-54
2022/06/26 03:35:00;;;;;;;10.45;5.68;;;;;;;;;;5014092;28;20402;-52
2022/06/26 03:37:28;;;;;;;10.98;6.40;;;;;;;;;;5015137;28;20099;-54
2022/06/26 03:39:55;;;;;;;6.25;5.75;;;;;;;;;;5015765;28;20135;-54
2022/06/26 03:42:22;;;;;;;6.80;6.10;;;;;;;;;;5016285;28;20061;-55
2022/06/26 03:44:49;;;;;;;8.82;5.68;;;;;;;;;;5016567;28;20073;-52
2022/06/26 03:47:17;;;;;;;7.10;6.07;;;;;;;;;;5017711;28;20072;-52
2022/06/26 03:49:44;;;;;;;7.28;6.57;;;;;;;;;;5014621;28;20099;-54
2022/06/26 03:52:11;;;;;;;8.80;6.38;;;;;;;;;;5014910;28;20077;-54
2022/06/26 03:54:39;;;;;;;10.45;6.95;;;;;;;;;;5015319;28;20081;-53
2022/06/26 03:57:06;;;;;;;8.80;6.70;;;;;;;;;;5015877;28;20080;-53
2022/06/26 03:59:34;;;;;;;7.15;6.35;;;;;;;;;;5010747;28;20676;-54
2022/06/26 04:02:01;;;;;;;8.70;6.18;;;;;;;;;;5013918;28;20472;-55
2022/06/26 04:04:28;;;;;;;7.10;6.40;;;;;;;;;;5016558;28;20617;-54
2022/06/26 04:06:56;;;;;;;9.77;6.50;;;;;;;;;;5012889;28;20172;-53
2022/06/26 04:09:23;;;;;;;;;;;;;;;;;;5014864;28;20143;-54
2022/06/26 04:11:50;;;;;;;7.63;6.82;;;;;;;;;;5014493;28;19921;-54
2022/06/26 04:14:18;;;;;;;6.72;6.03;;;;;;;;;;5017663;28;20069;-54
2022/06/26 04:16:45;;;;;;;6.97;6.38;;;;;;;;;;5015654;28;20046;-53
2022/06/26 04:19:12;;;;;;;7.70;5.82;;;;;;;;;;5014319;28;20558;-54
2022/06/26 04:21:40;;;;;;;7.20;6.55;;;;;;;;;;5010858;28;20050;-54
2022/06/26 04:24:07;;;;;;;7.45;6.75;;;;;;;;;;5016136;28;20094;-54
2022/06/26 04:26:34;;;;;;;7.20;6.50;;;;;;;;;;5017553;28;20053;-54
2022/06/26 04:29:02;;;;;;;9.85;6.25;;;;;;;;;;5013720;28;20534;-53
2022/06/26 04:31:29;;;;;;;9.38;6.75;;;;;;;;;;5014168;28;20664;-54
2022/06/26 04:33:56;;;;;;;8.35;6.63;;;;;;;;;;5014085;28;20066;-52
2022/06/26 04:36:23;;;;;;;10.35;6.40;;;;;;;;;;5015409;28;20073;-56
2022/06/26 04:38:51;;;;;;;6.75;5.95;;;;;;;;;;5012380;28;20520;-54
2022/06/26 04:41:36;;;;;;;9.50;6.28;;;;;;;;;;5015433;28;20047;-53
2022/06/26 04:44:08;;;;;;;8.88;6.20;;;;;;;;;;5018532;28;20152;-54
2022/06/26 04:46:36;;;;;;;8.95;6.60;;;;;;;;;;5019215;28;20045;-53
2022/06/26 04:49:03;;;;;;;6.88;6.18;;;;;;;;;;5019894;28;20133;-54
2022/06/26 04:51:31;;;;;;;8.60;6.50;;;;;;;;;;5016304;28;20092;-53
2022/06/26 04:53:58;;;;;;;11.23;6.43;;;;;;;;;;5017604;28;20552;-54
2022/06/26 04:56:25;;;;;;;7.13;6.32;;;;;;;;;;5019250;28;20501;-53
2022/06/26 04:58:53;;;;;;;7.70;6.63;;;;;;;;;;5019122;28;20107;-53
2022/06/26 05:01:20;;;;;;;;;;;;;;;;;;5017363;28;20073;-52
2022/06/26 05:03:47;;;;;;;9.23;6.57;;;;;;;;;;5016412;28;19933;-52
2022/06/26 05:06:19;;;;;;;8.15;5.95;;;;;;;;;;5017969;28;20621;-49
2022/06/26 05:08:47;;;;;;;9.07;5.97;;;;;;;;;;5017422;28;20501;-51
2022/06/26 05:11:14;;;;;;;;;;;;;;;;;;5017183;28;20050;-53
2022/06/26 05:13:41;;;;;;;7.80;6.00;;;;;;;;;;5017285;28;19956;-52
2022/06/26 05:16:08;;;;;;;8.93;6.55;;;;;;;;;;5020441;28;20089;-54
2022/06/26 05:18:36;;;;;;;8.82;6.22;;;;;;;;;;5019139;28;20129;-50
2022/06/26 05:21:03;;;;;;;7.88;5.93;;;;;;;;;;5020391;28;20115;-53
2022/06/26 05:23:30;;;;;;;9.30;6.25;;;;;;;;;;5020636;28;20050;-53
2022/06/26 05:25:57;;;;;;;7.45;6.13;;;;;;;;;;5018691;28;20493;-54
2022/06/26 05:28:25;;;;;;;8.88;6.05;;;;;;;;;;5020488;28;20073;-54
2022/06/26 05:30:52;;;;;;;10.85;6.80;;;;;;;;;;5021152;28;20050;-54
2022/06/26 05:33:19;;;;;;;9.18;6.40;;;;;;;;;;5019410;28;20084;-56
2022/06/26 05:35:47;;;;;;;9.85;6.07;;;;;;;;;;5021796;28;20416;-54
2022/06/26 05:38:14;;;;;;;8.70;6.15;;;;;;;;;;5022744;28;20049;-54
2022/06/26 05:40:41;;;;;;;10.68;6.80;;;;;;;;;;5017586;28;20147;-54
2022/06/26 05:43:09;;;;;;;6.63;5.90;;;;;;;;;;5016392;28;20082;-55
2022/06/26 05:45:37;;;;;;;8.25;5.97;;;;;;;;;;5018642;28;20137;-55
2022/06/26 05:48:06;;;;;;;6.45;5.85;;;;;;;;;;5017297;28;20926;-53
2022/06/26 05:50:33;;;;;;;8.68;6.05;;;;;;;;;;5018682;28;20080;-50
2022/06/26 05:53:01;;;;;;;15.73;6.10;;;;;;;;;;5016581;28;20042;-54
2022/06/26 05:55:28;;;;;;;8.13;5.95;;;;;;;;;;5023380;28;20053;-55
2022/06/26 05:57:55;;;;;;;;;;;;;;;;;;5016135;28;20516;-55
2022/06/26 06:00:23;;;;;;;8.40;5.97;;;;;;;;;;5016860;28;20350;-51
2022/06/26 06:02:50;;;;;;;9.52;5.75;;;;;;;;;;5018769;28;20507;-54
2022/06/26 06:05:17;;;;;;;6.75;6.05;;;;;;;;;;5018346;28;20558;-55
2022/06/26 06:07:45;;;;;;;7.20;6.05;;;;;;;;;;5016099;28;20073;-53
2022/06/26 06:10:12;;;;;;;6.45;5.82;;;;;;;;;;5014857;28;20099;-55
2022/06/26 06:12:39;;;;;;;6.75;6.03;;;;;;;;;;5015635;28;20046;-52
2022/06/26 06:15:07;;;;;;;7.90;6.18;;;;;;;;;;5016647;28;20050;-50
2022/06/26 06:17:38;;;;;;;8.77;5.32;;;;;;;;;;5016684;28;20076;-54
2022/06/26 06:20:08;;;;;;;6.68;5.80;;;;;;;;;;5014261;28;20091;-52
2022/06/26 06:22:35;;;;;;;8.00;6.28;;;;;;;;;;5017717;28;20078;-55
2022/06/26 06:25:02;;;;;;;8.52;5.65;;;;;;;;;;5015227;28;20073;-53
2022/06/26 06:27:38;;;;;;;8.18;6.60;;;;;;;;;;5017400;28;20442;-54
2022/06/26 06:30:07;;;;;;;8.73;6.32;;;;;;;;;;5016073;28;20981;-55
2022/06/26 06:32:35;;;;;;;6.47;5.88;;;;;;;;;;5017762;28;20050;-52
2022/06/26 06:35:03;;;;;;;6.75;6.15;;;;;;;;;;5015077;28;20068;-52
2022/06/26 06:37:32;;;;;;;7.32;5.95;;;;;;;;;;5019051;28;20145;-54
2022/06/26 06:40:01;;;;;;;7.45;5.90;;;;;;;;;;5017574;28;20096;-54
2022/06/26 06:42:28;;;;;;;6.70;5.55;;;;;;;;;;5015548;28;20111;-56
2022/06/26 06:44:55;;;;;;;6.78;6.15;;;;;;;;;;5020069;28;20137;-54
2022/06/26 06:47:22;;;;;;;9.30;6.15;;;;;;;;;;5020574;28;20453;-53
2022/06/26 06:49:49;;;;;;;6.90;6.10;;;;;;;;;;5017741;28;20133;-54
2022/06/26 06:52:17;;;;;;;8.65;6.50;;;;;;;;;;5015186;28;20057;-53
2022/06/26 06:54:44;;;;;;;8.60;6.38;;;;;;;;;;5018010;28;20500;-53
2022/06/26 06:57:11;;;;;;;9.25;6.57;;;;;;;;;;5012449;28;20584;-55
2022/06/26 06:59:39;;;;;;;6.93;6.15;;;;;;;;;;5014388;28;20112;-55
2022/06/26 07:02:06;;;;;;;;;;;;;;;;;;5017351;28;20100;-55
2022/06/26 07:04:33;;;;;;;7.57;6.80;;;;;;;;;;5013321;28;19921;-53
2022/06/26 07:07:01;;;;;;;8.10;7.10;;;;;;;;;;5015158;28;20414;-53
2022/06/26 07:09:28;;;;;;;8.95;6.53;;;;;;;;;;5016279;28;20050;-55
2022/06/26 07:11:56;;;;;;;12.60;6.93;;;;;;;;;;5018414;28;20038;-55
2022/06/26 07:14:24;;;;;;;7.28;5.97;;;;;;;;;;5013237;28;20149;-56
2022/06/26 07:16:51;;;;;;;;;;;;;;;;;;5015116;28;20046;-54
2022/06/26 07:19:18;;;;;;;11.02;6.53;;;;;;;;;;5012609;28;20499;-51
2022/06/26 07:21:45;;;;;;;9.68;6.45;;;;;;;;;;5015708;28;20132;-55
2022/06/26 07:24:14;;;;;;;6.55;5.88;;;;;;;;;;5017309;28;20107;-56
2022/06/26 07:26:41;;;;;;;9.88;5.78;;;;;;;;;;5016141;28;20050;-52
2022/06/26 07:29:09;;;;;;;11.73;6.28;;;;;;;;;;5015609;28;20049;-54
2022/06/26 07:31:36;;;;;;;7.03;6.20;;;;;;;;;;5014972;28;20076;-54
2022/06/26 07:34:12;;;;;;;6.47;5.88;;;;;;;;;;5016800;28;20049;-54
2022/06/26 07:36:43;;;;;;;6.40;5.80;;;;;;;;;;5016226;28;20107;-53
2022/06/26 07:39:15;;;;;;;6.78;6.18;;;;;;;;;;5012698;28;20600;-55
2022/06/26 07:41:43;;;;;;;11.02;6.55;;;;;;;;;;5013894;28;20111;-53
2022/06/26 07:44:11;;;;;;;7.32;6.07;;;;;;;;;;5016594;28;20045;-55
2022/06/26 07:46:38;;;;;;;6.55;5.90;;;;;;;;;;5011002;28;20066;-55
2022/06/26 07:49:07;;;;;;;6.93;6.25;;;;;;;;;;5013081;28;20556;-55
2022/06/26 07:51:35;;;;;;;9.50;5.95;;;;;;;;;;5015264;28;20077;-54
2022/06/26 07:54:03;;;;;;;7.45;6.15;;;;;;;;;;5016277;28;20105;-55
2022/06/26 07:56:30;;;;;;;10.25;6.55;;;;;;;;;;5018514;28;20971;-56
2022/06/26 07:58:58;;;;;;;9.00;6.47;;;;;;;;;;5010722;28;20084;-55
2022/06/26 08:01:25;;;;;;;9.02;6.72;;;;;;;;;;5014186;28;20114;-53
2022/06/26 08:03:53;;;;;;;10.10;6.03;;;;;;;;;;5016565;28;20054;-55
2022/06/26 08:06:20;;;;;;;6.85;5.97;;;;;;;;;;5012250;28;20049;-54
2022/06/26 08:08:48;;;;;;;7.85;5.90;;;;;;;;;;5012902;28;20587;-53
2022/06/26 08:11:15;;;;;;;;;;;;;;;;;;5014931;28;20049;-54
2022/06/26 08:13:42;;;;;;;11.27;6.53;;;;;;;;;;5013533;28;19921;-56
2022/06/26 08:16:09;;;;;;;;;;;;;;;;;;5017156;28;20081;-56
2022/06/26 08:18:37;;;;;;;7.13;5.88;;;;;;;;;;5018410;28;19928;-56
2022/06/26 08:23:51;;;;;;;10.98;6.30;;;;;;;;;;5005316;28;20079;-56
2022/06/26 08:26:18;;;;;;;10.52;5.80;;;;;;;;;;5022203;28;20072;-55
2022/06/26 08:28:45;;;;;;;;;;;;;;;;;;5019201;28;20085;-56
2022/06/26 08:31:12;;;;;;;9.68;6.07;;;;;;;;;;5020209;28;19952;-56
2022/06/26 08:33:40;;;;;;;;;;;;;;;;;;5018027;28;20049;-56
2022/06/26 08:36:07;;;;;;;9.65;6.90;;;;;;;;;;5013359;28;20011;-56
2022/06/26 08:38:35;;;;;;;7.57;6.78;;;;;;;;;;5018097;28;20153;-55
2022/06/26 08:41:02;;;;;;;;;;;;;;;;;;5019111;28;20073;-52
2022/06/26 08:43:29;;;;;;;9.13;6.22;;;;;;;;;;5020069;28;20008;-55
2022/06/26 08:46:01;;;;;;;12.38;6.22;;;;;;;;;;5019790;28;20106;-54
2022/06/26 08:48:35;;;;;;;6.95;6.10;;;;;;;;;;5018934;28;20493;-52
2022/06/26 08:51:03;;;;;;;7.30;6.18;;;;;;;;;;5019140;28;20049;-56
2022/06/26 08:53:30;;;;;;;9.30;6.30;;;;;;;;;;5021272;28;20056;-53
2022/06/26 08:55:58;;;;;;;8.75;6.03;;;;;;;;;;5021365;28;20057;-56
2022/06/26 08:58:25;;;;;;;8.57;6.53;;;;;;;;;;5017308;28;20084;-55
2022/06/26 09:00:53;;;;;;;7.53;6.68;;;;;;;;;;5013030;28;20061;-56
2022/06/26 09:03:20;;;;;;;;;;;;;;;;;;5019121;28;20054;-53
2022/06/26 09:05:48;;;;;;;12.68;6.57;;;;;;;;;;5020116;28;19987;-52
2022/06/26 09:08:19;;;;;;;6.80;6.10;;;;;;;;;;5019172;28;20103;-55
2022/06/26 09:10:49;;;;;;;8.60;6.32;;;;;;;;;;5016109;28;20134;-56
2022/06/26 09:13:17;;;;;;;9.80;6.97;;;;;;;;;;5018418;28;20095;-55
2022/06/26 09:15:45;;;;;;;10.10;6.38;;;;;;;;;;5023679;28;20077;-55
2022/06/26 09:18:14;;;;;;;8.10;6.00;;;;;;;;;;5022865;28;20139;-54
2022/06/26 09:20:54;;;;;;;9.90;6.90;;;;;;;;;;5020617;28;20840;-54
2022/06/26 09:23:21;;;;;;;7.35;6.65;;;;;;;;;;5018552;28;20100;-54
2022/06/26 09:25:55;;;;;;;7.28;6.63;;;;;;;;;;5021903;28;20053;-57
2022/06/26 09:28:22;;;;;;;6.88;6.18;;;;;;;;;;5018811;28;20041;-53
2022/06/26 09:30:50;;;;;;;;;;;;;;;;;;5018932;28;20080;-54
2022/06/26 09:33:18;;;;;;;7.93;6.18;;;;;;;;;;5018496;28;20011;-54
2022/06/26 09:35:46;;;;;;;7.18;6.22;;;;;;;;;;5018439;28;20078;-55
2022/06/26 09:38:13;;;;;;;;;;;;;;;;;;5016903;28;20542;-55
2022/06/26 09:40:45;;;;;;;9.90;7.18;;;;;;;;;;5020515;28;19975;-55
2022/06/26 09:43:15;;;;;;;10.73;6.85;;;;;;;;;;5016639;28;20092;-56
2022/06/26 09:45:42;;;;;;;12.07;5.82;;;;;;;;;;5016658;28;20140;-56
2022/06/26 09:48:10;;;;;;;6.97;6.28;;;;;;;;;;5017820;28;20041;-55
2022/06/26 09:50:37;;;;;;;8.95;5.72;;;;;;;;;;5019519;28;20137;-55
2022/06/26 09:53:05;;;;;;;;;;;;;;;;;;5013341;28;20057;-55
2022/06/26 09:55:32;;;;;;;7.50;6.05;;;;;;;;;;5016603;28;20454;-56
2022/06/26 09:58:00;;;;;;;8.02;6.03;;;;;;;;;;5018979;28;20046;-54
2022/06/26 10:00:29;;;;;;;8.32;6.20;;;;;;;;;;5016896;28;20082;-54
2022/06/26 10:08:30;;;;;;;8.00;5.60;;;;;;;;;;5014259;28;22054;-58
2022/06/26 10:10:59;;;;;;;6.45;5.63;;;;;;;;;;5018396;28;20077;-55
2022/06/26 10:13:27;;;;;;;8.68;5.82;;;;;;;;;;5015065;28;20069;-56
2022/06/26 10:16:03;;;;;;;8.07;5.78;;;;;;;;;;5016820;28;20928;-57
2022/06/26 10:18:49;;;;;;;5.82;5.22;;;;;;;;;;5016803;28;20096;-57
2022/06/26 10:21:17;;;;;;;5.47;4.97;;;;;;;;;;5017750;28;20104;-57
2022/06/26 10:23:44;;;;;;;7.43;5.60;;;;;;;;;;5019138;28;20593;-57
2022/06/26 10:26:15;;;;;;;7.05;5.00;;;;;;;;;;5018351;28;20484;-57
2022/06/26 10:29:18;;;;;;;8.85;5.60;;;;;;;;;;5013136;28;20141;-56
2022/06/26 10:31:47;;;;;;;7.35;5.78;;;;;;;;;;5000843;28;20115;-55
2022/06/26 10:34:22;;;;;;;8.93;5.30;;;;;;;;;;5013181;28;20041;-56
2022/06/26 10:36:58;;;;;;;6.35;5.32;;;;;;;;;;5016961;28;20049;-57
2022/06/26 10:39:45;;;;;;;11.98;5.43;;;;;;;;;;5014605;28;20095;-57
2022/06/26 10:45:15;;;;;;;5.85;5.20;;;;;;;;;;5014020;28;20679;-57
2022/06/26 10:48:02;;;;;;;5.80;5.20;;;;;;;;;;5014856;28;20125;-56
2022/06/26 10:50:37;;;;;;;5.70;5.07;;;;;;;;;;5010445;28;20742;-57
2022/06/26 10:53:11;;;;;;;8.23;5.10;;;;;;;;;;5019476;28;20137;-57
2022/06/26 10:55:41;;;;;;;5.80;4.93;;;;;;;;;;5017060;28;20136;-57
2022/06/26 10:58:09;;;;;;;7.47;5.85;;;;;;;;;;5017673;28;20061;-58
2022/06/26 11:00:36;;;;;;;7.72;5.05;;;;;;;;;;5009263;28;20148;-57
2022/06/26 11:03:12;;;;;;;6.72;4.90;;;;;;;;;;5013865;28;20587;-57
2022/06/26 11:05:49;;;;;;;10.23;4.97;;;;;;;;;;5016825;28;20520;-57
2022/06/26 11:08:22;;;;;;;6.88;4.90;;;;;;;;;;5031315;28;20049;-57
2022/06/26 11:10:49;;;;;;;6.57;5.05;;;;;;;;;;5017597;28;20111;-58
2022/06/26 11:13:17;;;;;;;4.93;4.43;;;;;;;;;;5018009;28;20065;-57
2022/06/26 11:15:44;;;;;;;;;;;;;;;;;;5015161;28;20076;-57
2022/06/26 11:18:11;;;;;;;5.03;4.60;;;;;;;;;;5017094;28;19975;-57
2022/06/26 11:20:53;;;;;;;6.28;5.10;;;;;;;;;;5015784;28;20057;-57
2022/06/26 11:23:24;;;;;;;5.85;4.70;;;;;;;;;;5016607;28;20054;-57
2022/06/26 11:25:54;;;;;;;8.23;4.85;;;;;;;;;;5016151;28;20125;-56
2022/06/26 11:28:26;;;;;;;7.78;4.90;;;;;;;;;;5014169;28;20142;-57
2022/06/26 11:30:54;;;;;;;5.90;4.90;;;;;;;;;;5015920;28;20496;-58
2022/06/26 11:33:21;;;;;;;;;;;;;;;;;;5012331;28;21970;-57
2022/06/26 11:35:48;;;;;;;6.10;5.30;;;;;;;;;;5013499;28;20685;-58
2022/06/26 11:38:15;;;;;;;;;;;;;;;;;;5013322;28;20066;-58
2022/06/26 11:40:43;;;;;;;9.73;5.32;;;;;;;;;;5015997;28;20070;-57
2022/06/26 11:43:11;;;;;;;10.95;5.30;;;;;;;;;;5015456;28;20073;-58
2022/06/26 11:45:43;;;;;;;6.35;5.38;;;;;;;;;;5011565;28;20081;-57
2022/06/26 11:48:13;;;;;;;6.65;5.38;;;;;;;;;;5015023;28;20128;-58
2022/06/26 11:50:40;;;;;;;8.63;5.50;;;;;;;;;;5014159;28;20100;-58
2022/06/26 11:53:07;;;;;;;7.43;5.05;;;;;;;;;;5019418;28;20140;-58
2022/06/26 11:55:44;;;;;;;5.75;4.90;;;;;;;;;;5014454;28;20049;-58
2022/06/26 11:58:12;;;;;;;9.50;4.78;;;;;;;;;;5015200;28;20131;-58
2022/06/26 12:00:41;;;;;;;10.63;5.30;;;;;;;;;;5016433;28;20564;-57
2022/06/26 12:03:11;;;;;;;9.30;5.50;;;;;;;;;;5014242;28;20505;-58
2022/06/26 12:05:40;;;;;;;12.20;5.03;;;;;;;;;;5015328;28;20045;-58
2022/06/26 12:08:18;;;;;;;9.90;5.28;;;;;;;;;;5016247;28;20056;-58
2022/06/26 12:10:50;;;;;;;9.65;5.15;;;;;;;;;;5011816;28;20120;-58
2022/06/26 12:13:24;;;;;;;9.07;5.65;;;;;;;;;;5014192;28;20058;-58
2022/06/26 12:15:52;;;;;;;7.10;5.75;;;;;;;;;;5016398;28;20564;-58
2022/06/26 12:18:19;;;;;;;10.50;5.53;;;;;;;;;;5016607;28;20052;-56
2022/06/26 12:20:46;;;;;;;;;;;;;;;;;;5017199;28;20099;-58
2022/06/26 12:23:14;;;;;;;7.00;5.68;;;;;;;;;;5014628;28;20339;-58
2022/06/26 12:25:49;;;;;;;6.68;5.82;;;;;;;;;;5015870;28;20045;-56
2022/06/26 12:28:22;;;;;;;9.55;5.50;;;;;;;;;;5015194;28;20053;-58
2022/06/26 12:30:50;;;;;;;7.80;5.57;;;;;;;;;;5014065;28;20081;-58
2022/06/26 12:33:18;;;;;;;6.43;4.85;;;;;;;;;;5015316;28;20064;-59
2022/06/26 12:35:45;;;;;;;8.32;5.35;;;;;;;;;;5016001;28;20057;-60
2022/06/26 12:38:12;;;;;;;7.63;5.03;;;;;;;;;;5016821;28;20084;-57
2022/06/26 12:40:40;;;;;;;6.30;5.22;;;;;;;;;;5016206;28;20138;-57
2022/06/26 12:43:07;;;;;;;6.43;5.05;;;;;;;;;;5017016;28;20057;-56
2022/06/26 12:45:34;;;;;;;9.85;5.40;;;;;;;;;;5014568;28;20144;-57
2022/06/26 12:48:02;;;;;;;7.78;5.00;;;;;;;;;;5016404;28;20452;-56
2022/06/26 12:50:29;;;;;;;5.25;4.72;;;;;;;;;;5012354;28;20626;-57
2022/06/26 12:52:56;;;;;;;8.88;4.88;;;;;;;;;;5016203;28;20064;-56
2022/06/26 12:55:24;;;;;;;9.50;4.88;;;;;;;;;;5014609;28;20057;-57
2022/06/26 12:57:51;;;;;;;6.32;4.57;;;;;;;;;;5013319;28;20123;-57
2022/06/26 13:00:18;;;;;;;7.55;5.70;;;;;;;;;;5010823;28;20119;-56
2022/06/26 13:02:45;;;;;;;5.43;4.47;;;;;;;;;;5016902;28;20046;-57
2022/06/26 13:05:13;;;;;;;7.43;5.10;;;;;;;;;;5021367;28;20135;-56
2022/06/26 13:07:40;;;;;;;9.35;5.05;;;;;;;;;;5017482;28;20058;-56
2022/06/26 13:10:08;;;;;;;7.20;4.70;;;;;;;;;;5019716;28;20054;-57
2022/06/26 13:12:35;;;;;;;6.28;4.85;;;;;;;;;;5019692;28;20053;-57
2022/06/26 13:15:03;;;;;;;5.63;4.53;;;;;;;;;;5016959;28;20173;-56
2022/06/26 13:17:30;;;;;;;7.07;5.20;;;;;;;;;;5019228;28;20053;-57
2022/06/26 13:19:58;;;;;;;9.57;5.30;;;;;;;;;;5014394;28;20536;-56
2022/06/26 13:22:26;;;;;;;8.23;5.13;;;;;;;;;;5018319;28;20064;-56
2022/06/26 13:24:53;;;;;;;10.73;5.43;;;;;;;;;;5019171;28;20041;-56
2022/06/26 13:27:20;;;;;;;7.78;5.10;;;;;;;;;;5015537;28;20572;-58
2022/06/26 13:29:47;;;;;;;13.80;5.97;;;;;;;;;;5016459;28;20092;-58
2022/06/26 13:32:20;;;;;;;7.40;6.03;;;;;;;;;;5018462;28;20049;-60
2022/06/26 13:34:47;;;;;;;;;;;;;;;;;;5017005;28;20049;-60
2022/06/26 13:37:16;;;;;;;6.68;5.57;;;;;;;;;;5019662;28;19921;-62
2022/06/26 13:39:43;;;;;;;9.98;6.28;;;;;;;;;;5018613;28;20573;-61
2022/06/26 13:42:11;;;;;;;9.23;6.53;;;;;;;;;;5018086;28;20139;-61
2022/06/26 13:44:38;;;;;;;8.85;6.63;;;;;;;;;;5015490;28;20103;-60
2022/06/26 13:47:05;;;;;;;9.02;6.00;;;;;;;;;;5018608;28;20050;-60
2022/06/26 13:49:54;;;;;;;9.25;5.90;;;;;;;;;;5016797;28;20057;-59
2022/06/26 13:52:22;;;;;;;8.23;5.90;;;;;;;;;;5018084;28;20173;-59
2022/06/26 13:54:49;;;;;;;;;;;;;;;;;;5017579;28;20095;-59
2022/06/26 13:57:16;;;;;;;6.38;5.78;;;;;;;;;;5019506;28;19971;-59
2022/06/26 13:59:44;;;;;;;7.05;5.35;;;;;;;;;;5013734;28;20080;-59
2022/06/26 14:02:11;;;;;;;;;;;;;;;;;;5017178;28;20111;-59
2022/06/26 14:04:39;;;;;;;7.82;5.35;;;;;;;;;;5016600;28;20418;-58
2022/06/26 14:07:08;;;;;;;6.28;5.70;;;;;;;;;;5018458;28;20050;-59
2022/06/26 14:09:38;;;;;;;6.22;5.20;;;;;;;;;;5016442;28;20069;-58
2022/06/26 14:12:09;;;;;;;6.68;6.00;;;;;;;;;;5018927;28;20171;-58
2022/06/26 14:14:37;;;;;;;7.57;5.45;;;;;;;;;;5014512;28;20474;-59
2022/06/26 14:17:04;;;;;;;;;;;;;;;;;;5013983;28;20053;-58
2022/06/26 14:19:31;;;;;;;8.07;5.70;;;;;;;;;;5014679;28;20619;-58
2022/06/26 14:27:35;;;;;;;8.38;5.35;;;;;;;;;;5018645;28;20072;-58
2022/06/26 14:30:02;;;;;;;6.75;5.20;;;;;;;;;;5012929;28;20069;-58
2022/06/26 14:32:29;;;;;;;6.65;4.95;;;;;;;;;;5015162;28;20045;-58
2022/06/26 14:35:00;;;;;;;8.02;5.35;;;;;;;;;;5016987;28;20577;-58
2022/06/26 14:37:27;;;;;;;6.25;4.68;;;;;;;;;;5016337;28;20085;-58
2022/06/26 14:39:54;;;;;;;7.90;5.47;;;;;;;;;;5015637;28;20367;-58
2022/06/26 14:42:22;;;;;;;8.38;4.93;;;;;;;;;;5016485;28;20076;-58
2022/06/26 14:44:49;;;;;;;17.73;7.05;;;;;;;;;;5016608;28;20049;-63
2022/06/26 14:47:16;;;;;;;;;;;;;;;;;;5019933;28;20124;-62
2022/06/26 14:49:43;;;;;;;28.70;9.70;;;;;;;;;;5015639;28;19964;-62
2022/06/26 14:52:11;;;;;;;25.85;11.13;;;;;;;;;;5014088;28;20077;-61
2022/06/26 14:54:38;;;;;;;20.67;9.00;;;;;;;;;;5015740;28;20460;-60
2022/06/26 14:57:05;;;;;;;;;;;;;;;;;;5017107;28;20100;-60
2022/06/26 14:59:36;;;;;;;12.60;8.07;;;;;;;;;;5016667;28;20347;-59
2022/06/26 15:02:04;;;;;;;18.60;8.30;;;;;;;;;;5018145;28;20060;-59
2022/06/26 15:04:32;;;;;;;17.25;9.35;;;;;;;;;;5015800;28;20459;-60
2022/06/26 15:06:59;;;;;;;14.20;8.70;;;;;;;;;;5021750;28;20054;-59
2022/06/26 15:09:26;;;;;;;;;;;;;;;;;;5021154;28;20073;-59
2022/06/26 15:11:54;;;;;;;18.98;9.10;;;;;;;;;;5018568;28;20372;-59
2022/06/26 15:14:21;;;;;;;19.85;9.07;;;;;;;;;;5016133;28;20041;-59
2022/06/26 15:16:51;;;;;;;;;;;;;;;;;;5019359;28;20049;-59
2022/06/26 15:19:19;;;;;;;11.93;8.85;;;;;;;;;;5016347;28;19929;-59